N525TS SVMI-SBEG
Flight info
| Callsign | N525TS |
|---|---|
| Flight time | 3h 24m |
| Altitude | 39000 |
| Route | SOSKA2 CBC UL304 POVLA UZ24 ANBIX UM402 ARVUM |
| Aircraft | C525/L-SDFGRWY/SB1 |
Departure
| Time | 2026-05-06 14:48 |
|---|---|
| Airport | Maiquetía Simón Bolívar International Airport (SVMI) |
Arrival
| Time | 2026-05-06 18:12 |
|---|---|
| Airport | Eduardo Gomes International Airport (SBEG) |
| Time | Latitude | Longitude | Altitude | Speed | Heading |
|---|---|---|---|---|---|
| 2026-05-06 14:33 | 10.59712 | -66.99519 | 296 ft | 0 kts | 76° |
| 2026-05-06 14:44 | 10.59719 | -66.99502 | 298 ft | 5 kts | 17° |
| 2026-05-06 14:44 | 10.59771 | -66.99515 | 297 ft | 10 kts | 335° |
| 2026-05-06 14:44 | 10.59801 | -66.99571 | 298 ft | 7 kts | 282° |
| 2026-05-06 14:45 | 10.59812 | -66.99624 | 299 ft | 0 kts | 284° |
| 2026-05-06 14:45 | 10.59815 | -66.99637 | 299 ft | 4 kts | 278° |
| 2026-05-06 14:45 | 10.59817 | -66.99675 | 300 ft | 6 kts | 273° |
| 2026-05-06 14:46 | 10.59827 | -66.99723 | 302 ft | 8 kts | 314° |
| 2026-05-06 14:46 | 10.59885 | -66.99705 | 300 ft | 13 kts | 66° |
| 2026-05-06 14:46 | 10.59895 | -66.99670 | 298 ft | 1 kts | 81° |
| 2026-05-06 14:46 | 10.59900 | -66.99651 | 298 ft | 11 kts | 77° |
| 2026-05-06 14:47 | 10.59962 | -66.99398 | 285 ft | 65 kts | 75° |
| 2026-05-06 14:47 | 10.60118 | -66.98759 | 248 ft | 117 kts | 77° |
| 2026-05-06 14:47 | 10.60341 | -66.97883 | 390 ft | 135 kts | 75° |
| 2026-05-06 14:47 | 10.60558 | -66.96948 | 797 ft | 135 kts | 77° |
| 2026-05-06 14:48 | 10.60769 | -66.95953 | 1022 ft | 152 kts | 78° |
| 2026-05-06 14:48 | 10.61004 | -66.94845 | 1238 ft | 168 kts | 78° |
| 2026-05-06 14:48 | 10.61275 | -66.93560 | 1366 ft | 195 kts | 79° |
| 2026-05-06 14:48 | 10.61507 | -66.92248 | 1875 ft | 199 kts | 81° |
| 2026-05-06 14:49 | 10.61741 | -66.90852 | 2395 ft | 201 kts | 82° |
| 2026-05-06 14:49 | 10.61981 | -66.89439 | 2913 ft | 204 kts | 82° |
| 2026-05-06 14:49 | 10.62226 | -66.88005 | 3402 ft | 207 kts | 82° |
| 2026-05-06 14:49 | 10.62474 | -66.86579 | 3975 ft | 205 kts | 82° |
| 2026-05-06 14:50 | 10.62722 | -66.85152 | 4451 ft | 208 kts | 82° |
| 2026-05-06 14:50 | 10.62972 | -66.83710 | 4954 ft | 208 kts | 82° |
| 2026-05-06 14:50 | 10.63224 | -66.82265 | 5411 ft | 211 kts | 82° |
| 2026-05-06 14:50 | 10.63479 | -66.80798 | 5944 ft | 210 kts | 81° |
| 2026-05-06 14:51 | 10.63732 | -66.79343 | 6389 ft | 212 kts | 81° |
| 2026-05-06 14:51 | 10.63991 | -66.77852 | 6862 ft | 213 kts | 82° |
| 2026-05-06 14:51 | 10.64247 | -66.76379 | 7305 ft | 214 kts | 82° |
| 2026-05-06 14:51 | 10.64504 | -66.74898 | 7714 ft | 215 kts | 82° |
| 2026-05-06 14:52 | 10.64762 | -66.73413 | 8163 ft | 215 kts | 82° |
| 2026-05-06 14:52 | 10.65024 | -66.71903 | 8585 ft | 216 kts | 82° |
| 2026-05-06 14:52 | 10.65287 | -66.70381 | 8988 ft | 219 kts | 82° |
| 2026-05-06 14:52 | 10.65550 | -66.68870 | 9416 ft | 220 kts | 82° |
| 2026-05-06 14:53 | 10.65813 | -66.67350 | 10076 ft | 219 kts | 82° |
| 2026-05-06 14:53 | 10.66080 | -66.65813 | 10697 ft | 220 kts | 82° |
| 2026-05-06 14:53 | 10.66343 | -66.64295 | 11288 ft | 220 kts | 82° |
| 2026-05-06 14:53 | 10.66606 | -66.62778 | 11853 ft | 221 kts | 82° |
| 2026-05-06 14:54 | 10.66871 | -66.61244 | 12406 ft | 222 kts | 81° |
| 2026-05-06 14:54 | 10.67139 | -66.59695 | 12977 ft | 222 kts | 81° |
| 2026-05-06 14:54 | 10.67407 | -66.58150 | 13499 ft | 223 kts | 81° |
| 2026-05-06 14:54 | 10.67677 | -66.56585 | 13965 ft | 227 kts | 80° |
| 2026-05-06 14:55 | 10.67952 | -66.54996 | 14425 ft | 230 kts | 80° |
| 2026-05-06 14:55 | 10.68227 | -66.53405 | 14873 ft | 233 kts | 79° |
| 2026-05-06 14:55 | 10.68507 | -66.51789 | 15334 ft | 235 kts | 79° |
| 2026-05-06 14:55 | 10.68779 | -66.50123 | 15791 ft | 239 kts | 81° |
| 2026-05-06 14:56 | 10.68778 | -66.48435 | 16237 ft | 243 kts | 94° |
| 2026-05-06 14:56 | 10.68371 | -66.46745 | 16664 ft | 249 kts | 103° |
| 2026-05-06 14:56 | 10.67820 | -66.45086 | 17057 ft | 253 kts | 104° |
| 2026-05-06 14:56 | 10.67277 | -66.43384 | 17459 ft | 255 kts | 102° |
| 2026-05-06 14:57 | 10.66773 | -66.41633 | 17866 ft | 257 kts | 101° |
| 2026-05-06 14:57 | 10.66304 | -66.39880 | 18227 ft | 260 kts | 101° |
| 2026-05-06 14:57 | 10.65846 | -66.38107 | 18581 ft | 263 kts | 101° |
| 2026-05-06 14:57 | 10.65379 | -66.36279 | 18920 ft | 266 kts | 101° |
| 2026-05-06 14:58 | 10.64917 | -66.34471 | 19269 ft | 268 kts | 102° |
| 2026-05-06 14:58 | 10.64447 | -66.32634 | 19590 ft | 272 kts | 102° |
| 2026-05-06 14:58 | 10.63969 | -66.30769 | 19934 ft | 274 kts | 102° |
| 2026-05-06 14:58 | 10.63487 | -66.28886 | 20235 ft | 277 kts | 102° |
| 2026-05-06 14:59 | 10.62996 | -66.26973 | 20546 ft | 280 kts | 102° |
| 2026-05-06 14:59 | 10.62503 | -66.25053 | 20848 ft | 282 kts | 102° |
| 2026-05-06 14:59 | 10.62006 | -66.23121 | 21126 ft | 285 kts | 102° |
| 2026-05-06 14:59 | 10.61504 | -66.21165 | 21407 ft | 288 kts | 103° |
| 2026-05-06 15:00 | 10.61001 | -66.19209 | 21664 ft | 291 kts | 103° |
| 2026-05-06 15:00 | 10.60489 | -66.17217 | 21954 ft | 293 kts | 103° |
| 2026-05-06 15:00 | 10.59969 | -66.15192 | 22225 ft | 295 kts | 103° |
| 2026-05-06 15:00 | 10.59449 | -66.13170 | 22513 ft | 297 kts | 103° |
| 2026-05-06 15:01 | 10.58929 | -66.11152 | 22788 ft | 299 kts | 104° |
| 2026-05-06 15:01 | 10.58399 | -66.09090 | 23089 ft | 299 kts | 104° |
| 2026-05-06 15:01 | 10.57875 | -66.07053 | 23327 ft | 302 kts | 104° |
| 2026-05-06 15:01 | 10.57189 | -66.05040 | 23578 ft | 305 kts | 117° |
| 2026-05-06 15:02 | 10.55987 | -66.03262 | 23841 ft | 306 kts | 130° |
| 2026-05-06 15:02 | 10.54317 | -66.01940 | 24119 ft | 306 kts | 152° |
| 2026-05-06 15:02 | 10.52345 | -66.01055 | 24378 ft | 306 kts | 161° |
| 2026-05-06 15:02 | 10.50322 | -66.00348 | 24629 ft | 307 kts | 162° |
| 2026-05-06 15:03 | 10.48295 | -65.99608 | 24890 ft | 308 kts | 160° |
| 2026-05-06 15:03 | 10.46323 | -65.98756 | 25148 ft | 309 kts | 156° |
| 2026-05-06 15:03 | 10.44370 | -65.97766 | 25383 ft | 311 kts | 153° |
| 2026-05-06 15:03 | 10.42496 | -65.96711 | 25604 ft | 312 kts | 152° |
| 2026-05-06 15:04 | 10.40605 | -65.95588 | 25841 ft | 313 kts | 151° |
| 2026-05-06 15:04 | 10.38717 | -65.94452 | 26052 ft | 315 kts | 151° |
| 2026-05-06 15:04 | 10.36834 | -65.93329 | 26271 ft | 316 kts | 151° |
| 2026-05-06 15:04 | 10.34903 | -65.92199 | 26496 ft | 316 kts | 152° |
| 2026-05-06 15:05 | 10.32987 | -65.91096 | 26698 ft | 317 kts | 152° |
| 2026-05-06 15:05 | 10.31063 | -65.90000 | 26920 ft | 318 kts | 152° |
| 2026-05-06 15:05 | 10.29121 | -65.88900 | 27115 ft | 319 kts | 153° |
| 2026-05-06 15:05 | 10.27175 | -65.87798 | 27318 ft | 320 kts | 153° |
| 2026-05-06 15:06 | 10.25219 | -65.86689 | 27508 ft | 321 kts | 153° |
| 2026-05-06 15:06 | 10.23281 | -65.85587 | 27692 ft | 322 kts | 153° |
| 2026-05-06 15:06 | 10.21297 | -65.84458 | 27882 ft | 323 kts | 153° |
| 2026-05-06 15:06 | 10.19339 | -65.83342 | 28065 ft | 324 kts | 153° |
| 2026-05-06 15:07 | 10.17374 | -65.82222 | 28238 ft | 325 kts | 153° |
| 2026-05-06 15:07 | 10.15393 | -65.81093 | 28417 ft | 325 kts | 153° |
| 2026-05-06 15:07 | 10.13416 | -65.79967 | 28602 ft | 326 kts | 153° |
| 2026-05-06 15:07 | 10.11450 | -65.78847 | 28776 ft | 327 kts | 153° |
| 2026-05-06 15:08 | 10.09465 | -65.77718 | 28957 ft | 328 kts | 153° |
| 2026-05-06 15:08 | 10.07443 | -65.76566 | 29118 ft | 329 kts | 152° |
| 2026-05-06 15:08 | 10.05448 | -65.75431 | 29290 ft | 330 kts | 152° |
| 2026-05-06 15:08 | 10.03441 | -65.74290 | 29458 ft | 331 kts | 152° |
| 2026-05-06 15:09 | 10.01432 | -65.73148 | 29624 ft | 331 kts | 152° |
| 2026-05-06 15:09 | 9.99421 | -65.72006 | 29757 ft | 333 kts | 152° |
| 2026-05-06 15:09 | 9.97386 | -65.70850 | 29922 ft | 334 kts | 152° |
| 2026-05-06 15:09 | 9.95348 | -65.69692 | 30080 ft | 334 kts | 152° |
| 2026-05-06 15:10 | 9.93342 | -65.68552 | 30259 ft | 334 kts | 152° |
| 2026-05-06 15:10 | 9.91298 | -65.67391 | 30389 ft | 336 kts | 152° |
| 2026-05-06 15:10 | 9.89234 | -65.66219 | 30513 ft | 337 kts | 152° |
| 2026-05-06 15:10 | 9.87182 | -65.65054 | 30640 ft | 339 kts | 152° |
| 2026-05-06 15:11 | 9.85118 | -65.63882 | 30785 ft | 339 kts | 152° |
| 2026-05-06 15:11 | 9.83049 | -65.62708 | 30894 ft | 341 kts | 152° |
| 2026-05-06 15:11 | 9.80984 | -65.61536 | 31067 ft | 340 kts | 152° |
| 2026-05-06 15:11 | 9.78912 | -65.60359 | 31192 ft | 341 kts | 151° |
| 2026-05-06 15:12 | 9.76858 | -65.59194 | 31303 ft | 342 kts | 152° |
| 2026-05-06 15:12 | 9.74748 | -65.57996 | 31466 ft | 342 kts | 151° |
| 2026-05-06 15:12 | 9.72673 | -65.56820 | 31553 ft | 344 kts | 151° |
| 2026-05-06 15:12 | 9.70590 | -65.55638 | 31716 ft | 343 kts | 151° |
| 2026-05-06 15:13 | 9.68505 | -65.54456 | 31803 ft | 345 kts | 151° |
| 2026-05-06 15:13 | 9.66404 | -65.53265 | 31932 ft | 345 kts | 151° |
| 2026-05-06 15:13 | 9.64306 | -65.52074 | 32018 ft | 347 kts | 151° |
| 2026-05-06 15:13 | 9.62189 | -65.50869 | 32157 ft | 347 kts | 151° |
| 2026-05-06 15:14 | 9.60073 | -65.49659 | 32276 ft | 347 kts | 151° |
| 2026-05-06 15:14 | 9.55854 | -65.47241 | 32493 ft | 348 kts | 151° |
| 2026-05-06 15:15 | 9.51608 | -65.44811 | 32708 ft | 350 kts | 150° |
| 2026-05-06 15:15 | 9.47362 | -65.42385 | 32905 ft | 351 kts | 150° |
| 2026-05-06 15:15 | 9.45217 | -65.41160 | 33025 ft | 352 kts | 150° |
| 2026-05-06 15:16 | 9.43067 | -65.39932 | 33112 ft | 353 kts | 150° |
| 2026-05-06 15:16 | 9.40947 | -65.38721 | 33286 ft | 351 kts | 150° |
| 2026-05-06 15:16 | 9.38795 | -65.37493 | 33348 ft | 353 kts | 150° |
| 2026-05-06 15:16 | 9.36670 | -65.36279 | 33485 ft | 353 kts | 150° |
| 2026-05-06 15:17 | 9.34540 | -65.35063 | 33564 ft | 354 kts | 150° |
| 2026-05-06 15:17 | 9.32377 | -65.33830 | 33701 ft | 353 kts | 150° |
| 2026-05-06 15:17 | 9.30223 | -65.32600 | 33769 ft | 354 kts | 150° |
| 2026-05-06 15:18 | 9.25939 | -65.30155 | 33944 ft | 356 kts | 150° |
| 2026-05-06 15:18 | 9.21590 | -65.27676 | 34165 ft | 356 kts | 150° |
| 2026-05-06 15:19 | 9.17284 | -65.25220 | 34349 ft | 357 kts | 150° |
| 2026-05-06 15:19 | 9.12935 | -65.22741 | 34522 ft | 358 kts | 150° |
| 2026-05-06 15:19 | 9.10769 | -65.21506 | 34685 ft | 356 kts | 150° |
| 2026-05-06 15:20 | 9.08597 | -65.20269 | 34786 ft | 357 kts | 150° |
| 2026-05-06 15:20 | 9.04268 | -65.17802 | 34933 ft | 358 kts | 150° |
| 2026-05-06 15:21 | 8.99917 | -65.15324 | 35103 ft | 359 kts | 150° |
| 2026-05-06 15:21 | 8.95535 | -65.12829 | 35251 ft | 360 kts | 150° |
| 2026-05-06 15:22 | 8.91169 | -65.10343 | 35405 ft | 361 kts | 150° |
| 2026-05-06 15:22 | 8.86759 | -65.07833 | 35564 ft | 361 kts | 150° |
| 2026-05-06 15:23 | 8.82412 | -65.05359 | 35759 ft | 360 kts | 150° |
| 2026-05-06 15:23 | 8.78017 | -65.02859 | 35883 ft | 361 kts | 150° |
| 2026-05-06 15:24 | 8.73625 | -65.00361 | 36021 ft | 361 kts | 150° |
| 2026-05-06 15:24 | 8.69223 | -64.97857 | 36120 ft | 363 kts | 150° |
| 2026-05-06 15:25 | 8.64822 | -64.95355 | 36222 ft | 364 kts | 150° |
| 2026-05-06 15:25 | 8.60409 | -64.92847 | 36321 ft | 365 kts | 150° |
| 2026-05-06 15:26 | 8.55967 | -64.90324 | 36436 ft | 365 kts | 150° |
| 2026-05-06 15:26 | 8.51544 | -64.87812 | 36543 ft | 365 kts | 150° |
| 2026-05-06 15:27 | 8.47119 | -64.85299 | 36677 ft | 365 kts | 150° |
| 2026-05-06 15:27 | 8.42659 | -64.82767 | 36777 ft | 366 kts | 150° |
| 2026-05-06 15:28 | 8.38227 | -64.80252 | 36867 ft | 366 kts | 149° |
| 2026-05-06 15:28 | 8.33774 | -64.77725 | 36957 ft | 367 kts | 150° |
| 2026-05-06 15:29 | 8.29301 | -64.75188 | 37045 ft | 367 kts | 149° |
| 2026-05-06 15:29 | 8.24852 | -64.72665 | 37136 ft | 368 kts | 149° |
| 2026-05-06 15:30 | 8.20371 | -64.70125 | 37230 ft | 368 kts | 149° |
| 2026-05-06 15:30 | 8.15923 | -64.67603 | 37317 ft | 368 kts | 149° |
| 2026-05-06 15:31 | 8.11447 | -64.65068 | 37407 ft | 368 kts | 149° |
| 2026-05-06 15:31 | 8.06990 | -64.62543 | 37495 ft | 368 kts | 149° |
| 2026-05-06 15:32 | 8.00268 | -64.58736 | 37625 ft | 368 kts | 149° |
| 2026-05-06 15:32 | 7.95821 | -64.56219 | 37712 ft | 367 kts | 149° |
| 2026-05-06 15:33 | 7.91355 | -64.53690 | 37798 ft | 367 kts | 149° |
| 2026-05-06 15:33 | 7.86911 | -64.51176 | 37880 ft | 367 kts | 149° |
| 2026-05-06 15:34 | 7.82441 | -64.48647 | 37966 ft | 367 kts | 149° |
| 2026-05-06 15:34 | 7.77993 | -64.46132 | 38052 ft | 366 kts | 149° |
| 2026-05-06 15:35 | 7.73546 | -64.43617 | 38135 ft | 366 kts | 149° |
| 2026-05-06 15:35 | 7.69085 | -64.41095 | 38217 ft | 365 kts | 149° |
| 2026-05-06 15:36 | 7.64656 | -64.38593 | 38302 ft | 365 kts | 149° |
| 2026-05-06 15:36 | 7.60228 | -64.36091 | 38389 ft | 364 kts | 149° |
| 2026-05-06 15:37 | 7.55800 | -64.33589 | 38472 ft | 364 kts | 149° |
| 2026-05-06 15:37 | 7.51353 | -64.31078 | 38571 ft | 364 kts | 149° |
| 2026-05-06 15:38 | 7.46945 | -64.28589 | 38666 ft | 364 kts | 149° |
| 2026-05-06 15:38 | 7.42513 | -64.26087 | 38761 ft | 364 kts | 149° |
| 2026-05-06 15:39 | 7.38111 | -64.23603 | 38857 ft | 363 kts | 149° |
| 2026-05-06 15:39 | 7.33675 | -64.21101 | 38957 ft | 363 kts | 149° |
| 2026-05-06 15:40 | 7.29256 | -64.18608 | 39061 ft | 363 kts | 148° |
| 2026-05-06 15:40 | 7.24827 | -64.16106 | 39061 ft | 365 kts | 148° |
| 2026-05-06 15:41 | 7.20400 | -64.13602 | 39054 ft | 367 kts | 149° |
| 2026-05-06 15:41 | 7.15917 | -64.11068 | 39045 ft | 369 kts | 149° |
| 2026-05-06 15:42 | 7.11423 | -64.08529 | 39048 ft | 370 kts | 149° |
| 2026-05-06 15:42 | 7.06944 | -64.06000 | 39049 ft | 370 kts | 149° |
| 2026-05-06 15:43 | 7.02458 | -64.03467 | 39058 ft | 369 kts | 148° |
| 2026-05-06 15:43 | 6.97960 | -64.00928 | 39066 ft | 368 kts | 148° |
| 2026-05-06 15:44 | 6.93490 | -63.98405 | 39067 ft | 367 kts | 149° |
| 2026-05-06 15:44 | 6.89040 | -63.95894 | 39064 ft | 367 kts | 149° |
| 2026-05-06 15:45 | 6.84577 | -63.93377 | 39064 ft | 367 kts | 149° |
| 2026-05-06 15:45 | 6.80118 | -63.90861 | 39065 ft | 366 kts | 149° |
| 2026-05-06 15:46 | 6.75687 | -63.88363 | 39065 ft | 366 kts | 149° |
| 2026-05-06 15:46 | 6.71247 | -63.85860 | 39068 ft | 365 kts | 149° |
| 2026-05-06 15:47 | 6.66799 | -63.83353 | 39070 ft | 364 kts | 149° |
| 2026-05-06 15:47 | 6.62366 | -63.80855 | 39063 ft | 364 kts | 149° |
| 2026-05-06 15:48 | 6.57951 | -63.78368 | 39058 ft | 364 kts | 149° |
| 2026-05-06 15:48 | 6.53529 | -63.75877 | 39060 ft | 363 kts | 150° |
| 2026-05-06 15:49 | 6.49120 | -63.73394 | 39060 ft | 363 kts | 150° |
| 2026-05-06 15:49 | 6.44713 | -63.70913 | 39063 ft | 362 kts | 151° |
| 2026-05-06 15:50 | 6.40310 | -63.68433 | 39068 ft | 362 kts | 151° |
| 2026-05-06 15:50 | 6.35898 | -63.65950 | 39065 ft | 362 kts | 151° |
| 2026-05-06 15:51 | 6.31504 | -63.63478 | 39065 ft | 362 kts | 152° |
| 2026-05-06 15:51 | 6.27123 | -63.61013 | 39069 ft | 362 kts | 152° |
| 2026-05-06 15:52 | 6.22701 | -63.58526 | 39082 ft | 362 kts | 152° |
| 2026-05-06 15:52 | 6.18302 | -63.56052 | 39080 ft | 362 kts | 152° |
| 2026-05-06 15:53 | 6.13884 | -63.53568 | 39078 ft | 363 kts | 152° |
| 2026-05-06 15:53 | 6.09496 | -63.51101 | 39080 ft | 363 kts | 152° |
| 2026-05-06 15:54 | 6.05059 | -63.48607 | 39078 ft | 363 kts | 152° |
| 2026-05-06 15:54 | 6.00644 | -63.46126 | 39081 ft | 364 kts | 152° |
| 2026-05-06 15:55 | 5.96236 | -63.43650 | 39080 ft | 364 kts | 152° |
| 2026-05-06 15:55 | 5.91798 | -63.41156 | 39082 ft | 365 kts | 152° |
| 2026-05-06 15:56 | 5.87365 | -63.38667 | 39079 ft | 365 kts | 152° |
| 2026-05-06 15:56 | 5.82917 | -63.36169 | 39090 ft | 365 kts | 152° |
| 2026-05-06 15:57 | 5.78477 | -63.33676 | 39096 ft | 365 kts | 152° |
| 2026-05-06 15:57 | 5.74014 | -63.31171 | 39104 ft | 366 kts | 152° |
| 2026-05-06 15:58 | 5.69584 | -63.28685 | 39108 ft | 366 kts | 152° |
| 2026-05-06 15:58 | 5.65126 | -63.26184 | 39116 ft | 366 kts | 152° |
| 2026-05-06 15:59 | 5.60672 | -63.23685 | 39118 ft | 366 kts | 152° |
| 2026-05-06 15:59 | 5.56218 | -63.21186 | 39117 ft | 366 kts | 152° |
| 2026-05-06 16:00 | 5.51757 | -63.18684 | 39115 ft | 367 kts | 152° |
| 2026-05-06 16:00 | 5.47308 | -63.16190 | 39114 ft | 367 kts | 152° |
| 2026-05-06 16:01 | 5.42835 | -63.13682 | 39114 ft | 367 kts | 152° |
| 2026-05-06 16:01 | 5.38381 | -63.11186 | 39114 ft | 367 kts | 152° |
| 2026-05-06 16:02 | 5.33911 | -63.08680 | 39113 ft | 367 kts | 152° |
| 2026-05-06 16:02 | 5.29444 | -63.06177 | 39114 ft | 367 kts | 152° |
| 2026-05-06 16:03 | 5.24982 | -63.03678 | 39117 ft | 367 kts | 152° |
| 2026-05-06 16:03 | 5.20525 | -63.01181 | 39120 ft | 367 kts | 153° |
| 2026-05-06 16:04 | 5.16046 | -62.98672 | 39125 ft | 367 kts | 153° |
| 2026-05-06 16:04 | 5.11575 | -62.96169 | 39126 ft | 367 kts | 153° |
| 2026-05-06 16:05 | 5.07109 | -62.93668 | 39129 ft | 367 kts | 153° |
| 2026-05-06 16:05 | 5.02649 | -62.91172 | 39134 ft | 367 kts | 153° |
| 2026-05-06 16:06 | 4.98201 | -62.88683 | 39137 ft | 367 kts | 152° |
| 2026-05-06 16:06 | 4.93725 | -62.86177 | 39142 ft | 367 kts | 152° |
| 2026-05-06 16:07 | 4.89259 | -62.83678 | 39141 ft | 367 kts | 153° |
| 2026-05-06 16:07 | 4.84796 | -62.81181 | 39143 ft | 367 kts | 152° |
| 2026-05-06 16:08 | 4.80340 | -62.78689 | 39139 ft | 367 kts | 153° |
| 2026-05-06 16:08 | 4.75845 | -62.76175 | 39131 ft | 368 kts | 152° |
| 2026-05-06 16:09 | 4.71387 | -62.73682 | 39129 ft | 368 kts | 153° |
| 2026-05-06 16:09 | 4.66899 | -62.71173 | 39134 ft | 368 kts | 152° |
| 2026-05-06 16:10 | 4.62441 | -62.68681 | 39135 ft | 368 kts | 152° |
| 2026-05-06 16:10 | 4.57947 | -62.66169 | 39147 ft | 368 kts | 152° |
| 2026-05-06 16:11 | 4.53481 | -62.63673 | 39156 ft | 368 kts | 152° |
| 2026-05-06 16:11 | 4.48996 | -62.61167 | 39167 ft | 368 kts | 152° |
| 2026-05-06 16:12 | 4.44517 | -62.58665 | 39169 ft | 368 kts | 152° |
| 2026-05-06 16:12 | 4.40037 | -62.56162 | 39167 ft | 368 kts | 152° |
| 2026-05-06 16:13 | 4.35557 | -62.53659 | 39158 ft | 368 kts | 152° |
| 2026-05-06 16:13 | 4.31069 | -62.51154 | 39146 ft | 368 kts | 152° |
| 2026-05-06 16:14 | 4.26599 | -62.48658 | 39135 ft | 369 kts | 152° |
| 2026-05-06 16:14 | 4.22115 | -62.46154 | 39123 ft | 369 kts | 152° |
| 2026-05-06 16:15 | 4.17634 | -62.43599 | 39117 ft | 369 kts | 149° |
| 2026-05-06 16:15 | 4.13549 | -62.40504 | 39115 ft | 370 kts | 139° |
| 2026-05-06 16:16 | 4.09898 | -62.36862 | 39107 ft | 371 kts | 135° |
| 2026-05-06 16:16 | 4.06192 | -62.33173 | 39107 ft | 371 kts | 137° |
| 2026-05-06 16:17 | 4.02414 | -62.29666 | 39103 ft | 370 kts | 139° |
| 2026-05-06 16:17 | 3.98591 | -62.26221 | 39101 ft | 370 kts | 139° |
| 2026-05-06 16:18 | 3.94776 | -62.22774 | 39096 ft | 370 kts | 139° |
| 2026-05-06 16:18 | 3.90960 | -62.19297 | 39084 ft | 370 kts | 138° |
| 2026-05-06 16:19 | 3.87128 | -62.15795 | 39074 ft | 370 kts | 139° |
| 2026-05-06 16:19 | 3.83329 | -62.12326 | 39067 ft | 370 kts | 138° |
| 2026-05-06 16:20 | 3.79512 | -62.08844 | 39061 ft | 370 kts | 138° |
| 2026-05-06 16:20 | 3.75720 | -62.05387 | 39058 ft | 369 kts | 139° |
| 2026-05-06 16:21 | 3.71917 | -62.01920 | 39052 ft | 369 kts | 138° |
| 2026-05-06 16:21 | 3.68114 | -61.98454 | 39048 ft | 369 kts | 138° |
| 2026-05-06 16:22 | 3.64326 | -61.95000 | 39053 ft | 369 kts | 139° |
| 2026-05-06 16:22 | 3.60518 | -61.91529 | 39052 ft | 369 kts | 139° |
| 2026-05-06 16:23 | 3.56704 | -61.88053 | 39049 ft | 370 kts | 139° |
| 2026-05-06 16:23 | 3.52899 | -61.84585 | 39042 ft | 370 kts | 139° |
| 2026-05-06 16:24 | 3.49098 | -61.81123 | 39028 ft | 370 kts | 139° |
| 2026-05-06 16:24 | 3.45287 | -61.77651 | 39028 ft | 370 kts | 139° |
| 2026-05-06 16:25 | 3.41468 | -61.74171 | 39026 ft | 370 kts | 139° |
| 2026-05-06 16:25 | 3.37667 | -61.70709 | 39029 ft | 370 kts | 139° |
| 2026-05-06 16:26 | 3.33854 | -61.67237 | 39031 ft | 370 kts | 139° |
| 2026-05-06 16:26 | 3.30059 | -61.63780 | 39029 ft | 370 kts | 139° |
| 2026-05-06 16:27 | 3.26253 | -61.60315 | 39030 ft | 370 kts | 139° |
| 2026-05-06 16:27 | 3.22424 | -61.56828 | 39028 ft | 370 kts | 139° |
| 2026-05-06 16:28 | 3.18622 | -61.53368 | 39030 ft | 370 kts | 139° |
| 2026-05-06 16:28 | 3.14805 | -61.49893 | 39026 ft | 370 kts | 139° |
| 2026-05-06 16:29 | 3.10988 | -61.46419 | 39028 ft | 370 kts | 139° |
| 2026-05-06 16:29 | 3.07192 | -61.42963 | 39024 ft | 370 kts | 139° |
| 2026-05-06 16:30 | 3.04006 | -61.40065 | 39025 ft | 370 kts | 139° |
| 2026-05-06 16:30 | 2.99570 | -61.36027 | 39020 ft | 370 kts | 139° |
| 2026-05-06 16:31 | 2.95740 | -61.32542 | 39021 ft | 369 kts | 139° |
| 2026-05-06 16:31 | 2.91936 | -61.29081 | 39016 ft | 369 kts | 139° |
| 2026-05-06 16:32 | 2.88151 | -61.25637 | 39016 ft | 369 kts | 139° |
| 2026-05-06 16:32 | 2.84327 | -61.22159 | 39010 ft | 369 kts | 139° |
| 2026-05-06 16:33 | 2.80533 | -61.18708 | 39013 ft | 369 kts | 139° |
| 2026-05-06 16:34 | 2.74846 | -61.13535 | 39013 ft | 368 kts | 139° |
| 2026-05-06 16:34 | 2.71052 | -61.10086 | 39018 ft | 368 kts | 139° |
| 2026-05-06 16:35 | 2.67254 | -61.06632 | 39018 ft | 368 kts | 139° |
| 2026-05-06 16:35 | 2.63470 | -61.03191 | 39018 ft | 368 kts | 139° |
| 2026-05-06 16:36 | 2.59693 | -60.99758 | 39014 ft | 368 kts | 139° |
| 2026-05-06 16:36 | 2.55898 | -60.96308 | 39016 ft | 367 kts | 139° |
| 2026-05-06 16:37 | 2.52117 | -60.92871 | 39017 ft | 367 kts | 139° |
| 2026-05-06 16:37 | 2.48337 | -60.89435 | 39018 ft | 367 kts | 139° |
| 2026-05-06 16:38 | 2.44563 | -60.86005 | 39017 ft | 367 kts | 139° |
| 2026-05-06 16:38 | 2.40800 | -60.82586 | 39021 ft | 367 kts | 139° |
| 2026-05-06 16:39 | 2.37015 | -60.79147 | 39023 ft | 366 kts | 139° |
| 2026-05-06 16:39 | 2.33225 | -60.75702 | 39024 ft | 366 kts | 139° |
| 2026-05-06 16:40 | 2.29456 | -60.72278 | 39022 ft | 366 kts | 139° |
| 2026-05-06 16:40 | 2.25696 | -60.68862 | 39017 ft | 367 kts | 139° |
| 2026-05-06 16:41 | 2.21913 | -60.65425 | 39021 ft | 367 kts | 139° |
| 2026-05-06 16:41 | 2.17995 | -60.62155 | 39019 ft | 365 kts | 148° |
| 2026-05-06 16:41 | 2.15723 | -60.61074 | 39014 ft | 364 kts | 162° |
| 2026-05-06 16:42 | 2.13225 | -60.60625 | 39027 ft | 364 kts | 176° |
| 2026-05-06 16:42 | 2.08166 | -60.60724 | 39024 ft | 364 kts | 182° |
| 2026-05-06 16:43 | 2.03066 | -60.60719 | 39023 ft | 364 kts | 177° |
| 2026-05-06 16:43 | 1.98015 | -60.60257 | 39022 ft | 364 kts | 173° |
| 2026-05-06 16:44 | 1.92971 | -60.59621 | 39025 ft | 364 kts | 173° |
| 2026-05-06 16:44 | 1.87919 | -60.59016 | 39024 ft | 364 kts | 173° |
| 2026-05-06 16:45 | 1.82855 | -60.58465 | 39019 ft | 365 kts | 174° |
| 2026-05-06 16:45 | 1.77797 | -60.57930 | 39022 ft | 365 kts | 174° |
| 2026-05-06 16:46 | 1.72723 | -60.57388 | 39021 ft | 366 kts | 174° |
| 2026-05-06 16:46 | 1.67677 | -60.56844 | 39019 ft | 366 kts | 174° |
| 2026-05-06 16:47 | 1.62574 | -60.56291 | 39024 ft | 366 kts | 174° |
| 2026-05-06 16:47 | 1.57498 | -60.55742 | 39025 ft | 366 kts | 174° |
| 2026-05-06 16:48 | 1.52411 | -60.55193 | 39030 ft | 367 kts | 173° |
| 2026-05-06 16:48 | 1.47316 | -60.54642 | 39028 ft | 367 kts | 174° |
| 2026-05-06 16:49 | 1.42232 | -60.54094 | 39029 ft | 367 kts | 174° |
| 2026-05-06 16:49 | 1.37126 | -60.53542 | 39024 ft | 368 kts | 173° |
| 2026-05-06 16:50 | 1.32019 | -60.52991 | 39028 ft | 368 kts | 173° |
| 2026-05-06 16:50 | 1.26910 | -60.52439 | 39022 ft | 368 kts | 174° |
| 2026-05-06 16:51 | 1.21804 | -60.51888 | 39021 ft | 368 kts | 174° |
| 2026-05-06 16:51 | 1.16704 | -60.51337 | 39021 ft | 369 kts | 173° |
| 2026-05-06 16:52 | 1.11579 | -60.50784 | 39019 ft | 369 kts | 173° |
| 2026-05-06 16:52 | 1.06465 | -60.50232 | 39016 ft | 369 kts | 173° |
| 2026-05-06 16:53 | 1.01357 | -60.49681 | 39019 ft | 369 kts | 173° |
| 2026-05-06 16:53 | 0.96217 | -60.49126 | 39017 ft | 370 kts | 173° |
| 2026-05-06 16:54 | 0.91088 | -60.48572 | 39022 ft | 370 kts | 173° |
| 2026-05-06 16:54 | 0.85943 | -60.48017 | 39022 ft | 370 kts | 174° |
| 2026-05-06 16:55 | 0.80800 | -60.47462 | 39018 ft | 370 kts | 174° |
| 2026-05-06 16:55 | 0.75678 | -60.46909 | 39025 ft | 370 kts | 174° |
| 2026-05-06 16:56 | 0.70534 | -60.46354 | 39025 ft | 370 kts | 174° |
| 2026-05-06 16:56 | 0.65389 | -60.45799 | 39022 ft | 370 kts | 173° |
| 2026-05-06 16:57 | 0.60282 | -60.45243 | 39017 ft | 370 kts | 174° |
| 2026-05-06 16:57 | 0.55149 | -60.44675 | 39019 ft | 370 kts | 173° |
| 2026-05-06 16:58 | 0.49990 | -60.44104 | 39017 ft | 370 kts | 173° |
| 2026-05-06 16:58 | 0.44860 | -60.43539 | 39021 ft | 370 kts | 173° |
| 2026-05-06 16:59 | 0.39750 | -60.42976 | 39018 ft | 370 kts | 173° |
| 2026-05-06 16:59 | 0.34624 | -60.42412 | 39018 ft | 370 kts | 173° |
| 2026-05-06 17:00 | 0.29481 | -60.41845 | 39018 ft | 369 kts | 173° |
| 2026-05-06 17:00 | 0.24377 | -60.41283 | 39017 ft | 369 kts | 174° |
| 2026-05-06 17:01 | 0.19236 | -60.40717 | 39018 ft | 369 kts | 173° |
| 2026-05-06 17:01 | 0.14114 | -60.40153 | 39019 ft | 369 kts | 174° |
| 2026-05-06 17:02 | 0.09097 | -60.39600 | 39022 ft | 369 kts | 174° |
| 2026-05-06 17:02 | 0.03978 | -60.39037 | 39025 ft | 368 kts | 174° |
| 2026-05-06 17:03 | -0.01114 | -60.38475 | 39023 ft | 368 kts | 173° |
| 2026-05-06 17:03 | -0.06248 | -60.37910 | 39026 ft | 368 kts | 173° |
| 2026-05-06 17:04 | -0.11340 | -60.37349 | 39027 ft | 368 kts | 173° |
| 2026-05-06 17:04 | -0.16467 | -60.36785 | 39023 ft | 368 kts | 173° |
| 2026-05-06 17:05 | -0.21590 | -60.36220 | 39023 ft | 369 kts | 173° |
| 2026-05-06 17:05 | -0.26698 | -60.35658 | 39017 ft | 369 kts | 173° |
| 2026-05-06 17:06 | -0.31820 | -60.35094 | 39018 ft | 369 kts | 173° |
| 2026-05-06 17:06 | -0.36916 | -60.34533 | 39019 ft | 369 kts | 173° |
| 2026-05-06 17:07 | -0.42058 | -60.33966 | 39020 ft | 370 kts | 172° |
| 2026-05-06 17:07 | -0.42214 | -60.33949 | 39018 ft | 370 kts | 173° |
| 2026-05-06 17:37 | -0.46154 | -60.33515 | 39020 ft | 370 kts | 173° |
| 2026-05-06 17:38 | -0.51270 | -60.32951 | 39023 ft | 371 kts | 172° |
| 2026-05-06 17:38 | -0.56428 | -60.32383 | 39017 ft | 371 kts | 172° |
| 2026-05-06 17:39 | -0.61592 | -60.31814 | 39018 ft | 372 kts | 172° |
| 2026-05-06 17:39 | -0.66748 | -60.31282 | 39016 ft | 373 kts | 174° |
| 2026-05-06 17:40 | -0.71975 | -60.31078 | 39016 ft | 374 kts | 177° |
| 2026-05-06 17:40 | -0.77215 | -60.30984 | 39015 ft | 375 kts | 177° |
| 2026-05-06 17:41 | -0.82419 | -60.30835 | 39015 ft | 376 kts | 176° |
| 2026-05-06 17:41 | -0.87679 | -60.30632 | 39009 ft | 376 kts | 176° |
| 2026-05-06 17:42 | -0.92925 | -60.30422 | 39003 ft | 378 kts | 176° |
| 2026-05-06 17:42 | -0.98193 | -60.30219 | 38994 ft | 379 kts | 176° |
| 2026-05-06 17:43 | -1.03499 | -60.30019 | 38995 ft | 380 kts | 176° |
| 2026-05-06 17:43 | -1.08800 | -60.29821 | 38997 ft | 381 kts | 176° |
| 2026-05-06 17:44 | -1.14148 | -60.29620 | 38998 ft | 382 kts | 176° |
| 2026-05-06 17:44 | -1.19454 | -60.29420 | 38999 ft | 382 kts | 176° |
| 2026-05-06 17:45 | -1.24781 | -60.29219 | 38997 ft | 383 kts | 176° |
| 2026-05-06 17:45 | -1.30143 | -60.29016 | 38994 ft | 383 kts | 176° |
| 2026-05-06 17:46 | -1.35463 | -60.28816 | 38993 ft | 384 kts | 176° |
| 2026-05-06 17:46 | -1.40840 | -60.28613 | 38788 ft | 390 kts | 176° |
| 2026-05-06 17:47 | -1.43583 | -60.28509 | 38159 ft | 395 kts | 176° |
| 2026-05-06 17:47 | -1.46327 | -60.28406 | 37563 ft | 397 kts | 176° |
| 2026-05-06 17:47 | -1.49107 | -60.28302 | 36966 ft | 399 kts | 176° |
| 2026-05-06 17:47 | -1.51930 | -60.28196 | 36358 ft | 400 kts | 176° |
| 2026-05-06 17:48 | -1.54691 | -60.28091 | 35768 ft | 401 kts | 176° |
| 2026-05-06 17:48 | -1.57488 | -60.27986 | 35171 ft | 402 kts | 176° |
| 2026-05-06 17:48 | -1.60306 | -60.27880 | 34574 ft | 402 kts | 176° |
| 2026-05-06 17:48 | -1.63124 | -60.27773 | 33983 ft | 402 kts | 176° |
| 2026-05-06 17:49 | -1.65903 | -60.27668 | 33397 ft | 402 kts | 176° |
| 2026-05-06 17:49 | -1.68716 | -60.27562 | 32806 ft | 402 kts | 176° |
| 2026-05-06 17:49 | -1.71507 | -60.27457 | 32272 ft | 402 kts | 176° |
| 2026-05-06 17:49 | -1.74321 | -60.27351 | 31725 ft | 403 kts | 176° |
| 2026-05-06 17:50 | -1.77154 | -60.27244 | 30947 ft | 408 kts | 176° |
| 2026-05-06 17:50 | -1.79979 | -60.27137 | 30197 ft | 411 kts | 176° |
| 2026-05-06 17:50 | -1.82820 | -60.27031 | 29437 ft | 399 kts | 176° |
| 2026-05-06 17:50 | -1.85542 | -60.26929 | 28679 ft | 386 kts | 176° |
| 2026-05-06 17:51 | -1.88189 | -60.26831 | 27919 ft | 375 kts | 175° |
| 2026-05-06 17:51 | -1.90773 | -60.26734 | 27163 ft | 365 kts | 175° |
| 2026-05-06 17:51 | -1.93255 | -60.26641 | 26420 ft | 357 kts | 175° |
| 2026-05-06 17:51 | -1.95715 | -60.26548 | 25668 ft | 350 kts | 175° |
| 2026-05-06 17:52 | -1.98135 | -60.26456 | 24921 ft | 344 kts | 175° |
| 2026-05-06 17:52 | -2.00515 | -60.26366 | 24171 ft | 338 kts | 175° |
| 2026-05-06 17:52 | -2.02849 | -60.26277 | 23434 ft | 332 kts | 175° |
| 2026-05-06 17:52 | -2.05117 | -60.26191 | 22726 ft | 327 kts | 175° |
| 2026-05-06 17:53 | -2.07376 | -60.26106 | 22027 ft | 322 kts | 175° |
| 2026-05-06 17:53 | -2.09622 | -60.26021 | 21352 ft | 318 kts | 174° |
| 2026-05-06 17:53 | -2.11808 | -60.25938 | 20683 ft | 314 kts | 175° |
| 2026-05-06 17:53 | -2.13979 | -60.25855 | 20009 ft | 311 kts | 175° |
| 2026-05-06 17:54 | -2.16137 | -60.25774 | 19327 ft | 309 kts | 174° |
| 2026-05-06 17:54 | -2.18268 | -60.25693 | 18645 ft | 306 kts | 175° |
| 2026-05-06 17:54 | -2.20411 | -60.25612 | 17947 ft | 304 kts | 175° |
| 2026-05-06 17:54 | -2.22499 | -60.25532 | 17263 ft | 301 kts | 174° |
| 2026-05-06 17:55 | -2.24593 | -60.25453 | 16570 ft | 299 kts | 175° |
| 2026-05-06 17:55 | -2.26651 | -60.25376 | 15886 ft | 297 kts | 175° |
| 2026-05-06 17:55 | -2.28719 | -60.25297 | 15186 ft | 295 kts | 175° |
| 2026-05-06 17:55 | -2.30783 | -60.25219 | 14484 ft | 294 kts | 175° |
| 2026-05-06 17:56 | -2.32805 | -60.25143 | 13782 ft | 292 kts | 175° |
| 2026-05-06 17:56 | -2.34847 | -60.25067 | 13071 ft | 291 kts | 175° |
| 2026-05-06 17:56 | -2.36862 | -60.24990 | 12362 ft | 289 kts | 175° |
| 2026-05-06 17:56 | -2.38860 | -60.24914 | 11653 ft | 288 kts | 175° |
| 2026-05-06 17:57 | -2.40836 | -60.24840 | 10947 ft | 286 kts | 174° |
| 2026-05-06 17:57 | -2.42843 | -60.24763 | 10224 ft | 285 kts | 174° |
| 2026-05-06 17:57 | -2.44826 | -60.24689 | 9506 ft | 283 kts | 174° |
| 2026-05-06 17:57 | -2.46789 | -60.24615 | 8791 ft | 282 kts | 174° |
| 2026-05-06 17:58 | -2.48736 | -60.24541 | 8074 ft | 280 kts | 174° |
| 2026-05-06 17:58 | -2.50676 | -60.24468 | 7352 ft | 278 kts | 174° |
| 2026-05-06 17:58 | -2.52585 | -60.24397 | 6638 ft | 276 kts | 174° |
| 2026-05-06 17:58 | -2.54513 | -60.24325 | 5907 ft | 274 kts | 173° |
| 2026-05-06 17:59 | -2.56405 | -60.24253 | 5182 ft | 273 kts | 173° |
| 2026-05-06 17:59 | -2.58286 | -60.24171 | 4458 ft | 271 kts | 173° |
| 2026-05-06 17:59 | -2.60154 | -60.24098 | 4046 ft | 258 kts | 173° |
| 2026-05-06 17:59 | -2.61881 | -60.24038 | 3967 ft | 236 kts | 173° |
| 2026-05-06 18:00 | -2.63462 | -60.23985 | 3955 ft | 215 kts | 173° |
| 2026-05-06 18:00 | -2.64908 | -60.23933 | 3954 ft | 197 kts | 172° |
| 2026-05-06 18:00 | -2.66222 | -60.23885 | 3950 ft | 181 kts | 171° |
| 2026-05-06 18:00 | -2.67446 | -60.23838 | 3949 ft | 167 kts | 172° |
| 2026-05-06 18:01 | -2.68574 | -60.23796 | 3944 ft | 154 kts | 170° |
| 2026-05-06 18:01 | -2.69596 | -60.23756 | 3940 ft | 141 kts | 169° |
| 2026-05-06 18:01 | -2.70530 | -60.23721 | 3931 ft | 127 kts | 169° |
| 2026-05-06 18:01 | -2.71402 | -60.23684 | 3927 ft | 136 kts | 169° |
| 2026-05-06 18:02 | -2.72479 | -60.23621 | 4281 ft | 173 kts | 171° |
| 2026-05-06 18:02 | -2.73922 | -60.23543 | 4110 ft | 236 kts | 173° |
| 2026-05-06 18:02 | -2.75578 | -60.23486 | 3998 ft | 237 kts | 173° |
| 2026-05-06 18:02 | -2.77229 | -60.23439 | 3975 ft | 232 kts | 174° |
| 2026-05-06 18:03 | -2.78834 | -60.23390 | 3968 ft | 228 kts | 173° |
| 2026-05-06 18:03 | -2.80413 | -60.23336 | 3972 ft | 224 kts | 173° |
| 2026-05-06 18:03 | -2.81983 | -60.23280 | 3971 ft | 221 kts | 173° |
| 2026-05-06 18:03 | -2.83508 | -60.23231 | 3973 ft | 218 kts | 173° |
| 2026-05-06 18:04 | -2.85016 | -60.23180 | 3971 ft | 215 kts | 173° |
| 2026-05-06 18:04 | -2.86538 | -60.23128 | 3975 ft | 214 kts | 173° |
| 2026-05-06 18:04 | -2.88010 | -60.23078 | 3972 ft | 212 kts | 173° |
| 2026-05-06 18:04 | -2.89510 | -60.23032 | 3846 ft | 218 kts | 173° |
| 2026-05-06 18:05 | -2.91069 | -60.22979 | 3619 ft | 227 kts | 174° |
| 2026-05-06 18:05 | -2.92677 | -60.22918 | 3388 ft | 235 kts | 173° |
| 2026-05-06 18:05 | -2.94333 | -60.22833 | 3133 ft | 240 kts | 168° |
| 2026-05-06 18:05 | -2.95874 | -60.22270 | 3013 ft | 232 kts | 147° |
| 2026-05-06 18:06 | -2.97391 | -60.21710 | 2975 ft | 232 kts | 161° |
| 2026-05-06 18:06 | -2.98961 | -60.21336 | 2967 ft | 227 kts | 163° |
| 2026-05-06 18:06 | -3.00515 | -60.20998 | 2972 ft | 223 kts | 163° |
| 2026-05-06 18:06 | -3.02021 | -60.20683 | 2974 ft | 221 kts | 163° |
| 2026-05-06 18:07 | -3.03559 | -60.20365 | 2817 ft | 224 kts | 163° |
| 2026-05-06 18:07 | -3.04922 | -60.19828 | 2707 ft | 198 kts | 133° |
| 2026-05-06 18:07 | -3.05517 | -60.18733 | 2582 ft | 173 kts | 91° |
| 2026-05-06 18:07 | -3.05298 | -60.17567 | 2356 ft | 170 kts | 67° |
| 2026-05-06 18:08 | -3.04815 | -60.16481 | 2158 ft | 171 kts | 62° |
| 2026-05-06 18:08 | -3.04282 | -60.15424 | 1972 ft | 168 kts | 61° |
| 2026-05-06 18:08 | -3.03968 | -60.14321 | 1879 ft | 157 kts | 80° |
| 2026-05-06 18:08 | -3.03885 | -60.13248 | 1541 ft | 156 kts | 84° |
| 2026-05-06 18:09 | -3.03862 | -60.12228 | 1367 ft | 136 kts | 86° |
| 2026-05-06 18:09 | -3.03854 | -60.11337 | 1201 ft | 121 kts | 86° |
| 2026-05-06 18:09 | -3.03853 | -60.10575 | 1101 ft | 101 kts | 86° |
| 2026-05-06 18:09 | -3.03852 | -60.09895 | 942 ft | 93 kts | 86° |
| 2026-05-06 18:10 | -3.03851 | -60.09241 | 859 ft | 93 kts | 88° |
| 2026-05-06 18:10 | -3.03852 | -60.08572 | 746 ft | 99 kts | 87° |
| 2026-05-06 18:10 | -3.03853 | -60.07857 | 610 ft | 107 kts | 90° |
| 2026-05-06 18:10 | -3.03857 | -60.07094 | 470 ft | 109 kts | 90° |
| 2026-05-06 18:11 | -3.03857 | -60.06322 | 285 ft | 113 kts | 91° |
| 2026-05-06 18:11 | -3.03859 | -60.05610 | 237 ft | 90 kts | 92° |
| 2026-05-06 18:11 | -3.03859 | -60.05059 | 238 ft | 67 kts | 90° |
| 2026-05-06 18:11 | -3.03861 | -60.04644 | 237 ft | 53 kts | 91° |
| 2026-05-06 18:12 | -3.03861 | -60.04313 | 236 ft | 42 kts | 92° |
| 2026-05-06 18:12 | -3.03862 | -60.04041 | 236 ft | 35 kts | 90° |
| 2026-05-06 18:12 | -3.03864 | -60.03841 | 236 ft | 21 kts | 86° |
| 2026-05-06 18:12 | -3.03790 | -60.03769 | 236 ft | 14 kts | 7° |
| 2026-05-06 18:13 | -3.03706 | -60.03811 | 236 ft | 13 kts | 305° |
| 2026-05-06 18:13 | -3.03673 | -60.03891 | 236 ft | 11 kts | 285° |
| 2026-05-06 18:13 | -3.03651 | -60.03965 | 236 ft | 10 kts | 285° |
| 2026-05-06 18:13 | -3.03633 | -60.04032 | 236 ft | 9 kts | 285° |
| 2026-05-06 18:14 | -3.03616 | -60.04090 | 236 ft | 8 kts | 286° |
| 2026-05-06 18:14 | -3.03600 | -60.04150 | 236 ft | 11 kts | 286° |
| 2026-05-06 18:14 | -3.03567 | -60.04242 | 236 ft | 16 kts | 300° |
| 2026-05-06 18:14 | -3.03489 | -60.04331 | 236 ft | 16 kts | 324° |
| 2026-05-06 18:15 | -3.03392 | -60.04378 | 236 ft | 14 kts | 342° |
| 2026-05-06 18:15 | -3.03309 | -60.04364 | 236 ft | 12 kts | 63° |
| 2026-05-06 18:15 | -3.03286 | -60.04286 | 236 ft | 10 kts | 76° |
| 2026-05-06 18:15 | -3.03270 | -60.04217 | 236 ft | 9 kts | 72° |
| 2026-05-06 18:16 | -3.03249 | -60.04150 | 237 ft | 12 kts | 75° |
| 2026-05-06 18:16 | -3.03223 | -60.04050 | 237 ft | 17 kts | 77° |
| 2026-05-06 18:16 | -3.03192 | -60.03933 | 237 ft | 16 kts | 74° |
| 2026-05-06 18:16 | -3.03172 | -60.03862 | 237 ft | 0 kts | 79° |
| 2026-05-06 18:17 | -3.03173 | -60.03856 | 237 ft | 3 kts | 114° |
| 2026-05-06 18:17 | -3.03200 | -60.03850 | 237 ft | 2 kts | 200° |
| 2026-05-06 18:17 | -3.03206 | -60.03859 | 237 ft | 1 kts | 249° |
| 2026-05-06 18:17 | -3.03208 | -60.03864 | 237 ft | 0 kts | 257° |
| 2026-05-06 18:18 | -3.03208 | -60.03863 | 237 ft | 0 kts | 257° |